Record high temperature 38.5°C Record low temperature -6.1°C Record high gust 94.9 km/h Record high average 70.9 km/h Record daily rain 58.2 mm Record low windchill -9.9°C Record high barometer 1045.9 hPa Record low barometer 985.2 hPa
Daily high pressure 1023.4 hPa Daily low pressure 1019.3 hPa Daily low windchill 15.6°C Daily high heat index 17.4°C Daily high gust speed 19.3 kmh SE Daily high average speed 15.1 kmh ESE
Stazione meteo Crema centro
ULTIMO RILEVAMENTO ALLE ORE: 10:10 GIORNO: 21 Settembre 2021 prossimo aggiornamento ore: 10:15
Tempo presentePartly cloudy/Dry Temperatura attuale 16.9°C (62.4°F), temperatura apparente 16.6°C, Apparent temp solar 20.0°C
Temperatura massima (da mezzanotte)17.4°C alle ore: 08:29 Temperatura minima (da mezzanotte)15.6°C alle ore: 02:57
Forza media vento (dieci minuti)9.6 kmh (5.2 kts) Direzione vento (dieci minuti)ESE (106°)
Temperatura vento 16.9°C Massima forza (ultima ora)19.3 kmh (10.4 kts) alle ore: 09:31
Massima forza (da mezzanotte)19.3 kmh (10.4 kts) alle ore: 09:31 Massimo vento 1 minuto (da mezzanotte)15.1 kmh (8.2 kts) alle ore: 09:25
Pioggia (ultima ora)0.0 mm Pioggia (da mezzanotte)0.0 mm (0.00 in.)---
Pioggia Questo mese 35.1 mm (1.38 in.) Pioggia Questo anno 382.0 mm (15.04 in.)
Massima pioggia per minuto (ultima ora)0.0 mm/min Massima pioggia per ora (ultime 6 ore)0.0 mm/ore
Pioggia di ieri 4.1 mm DewPoint 12.6°C (Wet Bulb :14.5°C )
Umidita 76 %, Humidex 19.5°C Pressione S.L.M.1023.2 hPa (QNH 1023.2 hPa
Variazione pressione +0.3 hPa (ultima ora) Tendenza (ultime 1 ore)Stazionaria
Variazione pressione (ultime 12 ore)+5.4 hPa Variazione pressione (ultime 6 ore)+3.1 hPa
Current Solar 200 W/mē
Maximum solar (da mezzanotte) 338 W/mē Minimum solar (da mezzanotte)0 W/mē
Current 01:05 hours of sunshine today, current sky: Partly cloudy
Sunshine hours for the year: 1509:55 hrs Sunshine hours for the month: 122:44 hrs
Current evapotranspiration rate 0.7 mm per day. Yesterday's reading 3.1

Questa pagina e` aggiornata con i dati della stazione meteo DAVIS VP Premere Reload o Refresh per facilitare la lettura dei dati aggiornati.

Status report of weather station: IK2CHZ - Crema meteo



Weather report/warning/Metars

Milano / Linate, Italy (LIML) 45-26N 009-17E 103M
Sep 21, 2021 - 03:50 AM EDT / 2021.09.21 0750 UTC
Wind: from the E (080 degrees) at 6 MPH (5 KT):0
Visibility: greater than 7 mile(s):0
Sky conditions: partly cloudy
Temperature: 62 F (17 C)
Dew Point: 55 F (13 C)
Relative Humidity: 77%
Pressure (altimeter): 30.21 in. Hg (1023 hPa)
ob: LIML 210750Z 08005KT 9999 SCT025 SCT050 17/13 Q1023 NOSIG
cycle: 8
Bergamo / Orio Al Serio, Italy (LIME) 45-40N 009-42E 237M
Sep 21, 2021 - 03:50 AM EDT / 2021.09.21 0750 UTC
Wind: from the W (280 degrees) at 6 MPH (5 KT) (direction variable):0
Visibility: greater than 7 mile(s):0
Sky conditions: mostly cloudy
Temperature: 62 F (17 C)
Dew Point: 55 F (13 C)
Relative Humidity: 77%
Pressure (altimeter): 30.21 in. Hg (1023 hPa)
ob: LIME 210750Z 28005KT 250V320 9999 SCT025 BKN050 17/13 Q1023 NOSIG
cycle: 8
Piacenza, Italy (LIMS) 44-55N 009-44E 138M
Sep 21, 2021 - 02:55 AM EDT / 2021.09.21 0655 UTC
Wind: from the SE (140 degrees) at 3 MPH (3 KT):0
Visibility: 4 mile(s):0
Sky conditions: mostly cloudy
Temperature: 62 F (17 C)
Dew Point: 62 F (17 C)
Relative Humidity: 100%
Pressure (altimeter): 30.15 in. Hg (1021 hPa)
ob: LIMS 210655Z 14003KT 7000 BKN011 SCT020 17/17 Q1021
cycle: 7